Terminal Aerodrome Forecast
Issued by NWS Omaha/Valley, NE

Home | Current Version | Previous Version | Text Only | Print | Product List | Glossary On
Versions: 1 2 3 4 5 6 7 8 9 10 11 12 13 14 15
000
FTUS43 KOAX 311844 AAA
TAFLNK
TAF AMD
KLNK 311844Z 3119/0118 33012KT P6SM SCT035 BKN250
      TEMPO 3119/3121 BKN035
     FM312100 33010KT P6SM SCT035 SCT250
     FM010000 35005KT P6SM BKN100
     FM010600 VRB04KT P6SM SCT250=

USA.gov is the U.S. government's official web portal to all federal, state and local government web resources and services.